sensor_id;sensor_type;location;lat;lon;timestamp;P1;durP1;ratioP1;P2;durP2;ratioP2
72286;SDS011;60221;45.696;16.076;2023-04-05T00:01:59;5.90;;;1.20;;
72286;SDS011;60221;45.696;16.076;2023-04-05T00:04:27;5.50;;;0.90;;
72286;SDS011;60221;45.696;16.076;2023-04-05T00:06:54;6.20;;;1.20;;
72286;SDS011;60221;45.696;16.076;2023-04-05T00:09:23;3.50;;;0.30;;
72286;SDS011;60221;45.696;16.076;2023-04-05T00:11:49;6.80;;;1.80;;
72286;SDS011;60221;45.696;16.076;2023-04-05T00:14:16;5.40;;;1.00;;
72286;SDS011;60221;45.696;16.076;2023-04-05T00:16:43;6.30;;;1.10;;
72286;SDS011;60221;45.696;16.076;2023-04-05T00:19:10;5.10;;;1.10;;
72286;SDS011;60221;45.696;16.076;2023-04-05T00:21:38;8.80;;;1.60;;
72286;SDS011;60221;45.696;16.076;2023-04-05T00:24:05;5.80;;;1.20;;
72286;SDS011;60221;45.696;16.076;2023-04-05T00:26:32;5.30;;;1.20;;
72286;SDS011;60221;45.696;16.076;2023-04-05T00:29:00;3.80;;;0.50;;
72286;SDS011;60221;45.696;16.076;2023-04-05T00:31:27;9.50;;;1.70;;
72286;SDS011;60221;45.696;16.076;2023-04-05T00:33:54;6.60;;;1.00;;
72286;SDS011;60221;45.696;16.076;2023-04-05T00:36:21;4.40;;;0.50;;
72286;SDS011;60221;45.696;16.076;2023-04-05T00:38:48;3.90;;;0.50;;
72286;SDS011;60221;45.696;16.076;2023-04-05T00:41:15;3.80;;;0.70;;
72286;SDS011;60221;45.696;16.076;2023-04-05T00:43:42;4.80;;;0.30;;
72286;SDS011;60221;45.696;16.076;2023-04-05T00:46:09;4.30;;;1.30;;
72286;SDS011;60221;45.696;16.076;2023-04-05T00:48:37;5.20;;;0.80;;
72286;SDS011;60221;45.696;16.076;2023-04-05T00:51:03;4.10;;;0.60;;
72286;SDS011;60221;45.696;16.076;2023-04-05T00:53:35;3.10;;;0.40;;
72286;SDS011;60221;45.696;16.076;2023-04-05T00:56:03;4.00;;;0.90;;
72286;SDS011;60221;45.696;16.076;2023-04-05T00:58:30;9.30;;;1.00;;
72286;SDS011;60221;45.696;16.076;2023-04-05T01:03:25;3.70;;;0.70;;
72286;SDS011;60221;45.696;16.076;2023-04-05T01:06:00;4.10;;;0.70;;
72286;SDS011;60221;45.696;16.076;2023-04-05T01:08:41;6.10;;;0.40;;
72286;SDS011;60221;45.696;16.076;2023-04-05T01:11:11;4.30;;;0.80;;
72286;SDS011;60221;45.696;16.076;2023-04-05T01:13:38;4.50;;;0.90;;
72286;SDS011;60221;45.696;16.076;2023-04-05T01:16:05;7.40;;;1.10;;
72286;SDS011;60221;45.696;16.076;2023-04-05T01:18:32;7.50;;;1.00;;
72286;SDS011;60221;45.696;16.076;2023-04-05T01:21:15;4.40;;;0.50;;
72286;SDS011;60221;45.696;16.076;2023-04-05T01:23:58;6.40;;;0.70;;
72286;SDS011;60221;45.696;16.076;2023-04-05T01:36:29;4.70;;;0.90;;
72286;SDS011;60221;45.696;16.076;2023-04-05T01:38:58;7.30;;;0.90;;
72286;SDS011;60221;45.696;16.076;2023-04-05T01:41:25;4.90;;;0.80;;
72286;SDS011;60221;45.696;16.076;2023-04-05T01:43:52;7.60;;;0.90;;
72286;SDS011;60221;45.696;16.076;2023-04-05T01:46:20;3.50;;;0.40;;
72286;SDS011;60221;45.696;16.076;2023-04-05T01:48:47;5.60;;;0.90;;
72286;SDS011;60221;45.696;16.076;2023-04-05T01:51:14;4.80;;;0.90;;
72286;SDS011;60221;45.696;16.076;2023-04-05T01:53:40;4.90;;;0.70;;
72286;SDS011;60221;45.696;16.076;2023-04-05T01:56:07;3.20;;;0.40;;
72286;SDS011;60221;45.696;16.076;2023-04-05T01:58:35;3.50;;;0.20;;
72286;SDS011;60221;45.696;16.076;2023-04-05T02:01:02;5.20;;;1.00;;
72286;SDS011;60221;45.696;16.076;2023-04-05T02:03:29;4.10;;;0.70;;
72286;SDS011;60221;45.696;16.076;2023-04-05T02:05:56;7.40;;;0.70;;
72286;SDS011;60221;45.696;16.076;2023-04-05T02:08:23;4.70;;;0.70;;
72286;SDS011;60221;45.696;16.076;2023-04-05T02:10:51;8.40;;;0.90;;
72286;SDS011;60221;45.696;16.076;2023-04-05T02:13:18;5.20;;;0.70;;
72286;SDS011;60221;45.696;16.076;2023-04-05T02:15:48;4.90;;;0.70;;
72286;SDS011;60221;45.696;16.076;2023-04-05T02:18:15;5.00;;;0.60;;
72286;SDS011;60221;45.696;16.076;2023-04-05T02:20:48;3.80;;;0.40;;
72286;SDS011;60221;45.696;16.076;2023-04-05T02:23:16;4.60;;;0.70;;
72286;SDS011;60221;45.696;16.076;2023-04-05T02:25:43;4.40;;;0.40;;
72286;SDS011;60221;45.696;16.076;2023-04-05T02:28:09;5.20;;;0.90;;
72286;SDS011;60221;45.696;16.076;2023-04-05T02:30:37;4.60;;;1.10;;
72286;SDS011;60221;45.696;16.076;2023-04-05T02:33:04;3.40;;;0.50;;
72286;SDS011;60221;45.696;16.076;2023-04-05T02:35:32;3.20;;;0.20;;
72286;SDS011;60221;45.696;16.076;2023-04-05T02:37:59;4.90;;;0.80;;
72286;SDS011;60221;45.696;16.076;2023-04-05T02:40:27;6.50;;;0.80;;
72286;SDS011;60221;45.696;16.076;2023-04-05T02:42:54;5.40;;;0.70;;
72286;SDS011;60221;45.696;16.076;2023-04-05T02:45:21;3.40;;;0.40;;
72286;SDS011;60221;45.696;16.076;2023-04-05T02:47:48;6.60;;;1.40;;
72286;SDS011;60221;45.696;16.076;2023-04-05T02:50:15;7.80;;;1.30;;
72286;SDS011;60221;45.696;16.076;2023-04-05T02:52:46;3.00;;;0.40;;
72286;SDS011;60221;45.696;16.076;2023-04-05T02:55:16;8.60;;;1.30;;
72286;SDS011;60221;45.696;16.076;2023-04-05T02:57:44;6.60;;;1.10;;
72286;SDS011;60221;45.696;16.076;2023-04-05T03:00:28;6.70;;;0.90;;
72286;SDS011;60221;45.696;16.076;2023-04-05T03:02:56;7.30;;;1.30;;
72286;SDS011;60221;45.696;16.076;2023-04-05T03:05:23;6.10;;;0.80;;
72286;SDS011;60221;45.696;16.076;2023-04-05T03:07:51;5.00;;;1.20;;
72286;SDS011;60221;45.696;16.076;2023-04-05T03:10:21;7.10;;;1.30;;
72286;SDS011;60221;45.696;16.076;2023-04-05T03:12:52;7.60;;;1.40;;
72286;SDS011;60221;45.696;16.076;2023-04-05T03:15:21;6.00;;;1.00;;
72286;SDS011;60221;45.696;16.076;2023-04-05T03:17:48;3.50;;;0.60;;
72286;SDS011;60221;45.696;16.076;2023-04-05T03:20:15;5.40;;;0.80;;
72286;SDS011;60221;45.696;16.076;2023-04-05T03:22:42;5.30;;;0.80;;
72286;SDS011;60221;45.696;16.076;2023-04-05T03:25:09;5.10;;;1.40;;
72286;SDS011;60221;45.696;16.076;2023-04-05T03:27:40;4.70;;;0.60;;
72286;SDS011;60221;45.696;16.076;2023-04-05T03:30:10;8.40;;;1.10;;
72286;SDS011;60221;45.696;16.076;2023-04-05T03:32:42;7.90;;;1.30;;
72286;SDS011;60221;45.696;16.076;2023-04-05T03:35:15;5.50;;;0.70;;
72286;SDS011;60221;45.696;16.076;2023-04-05T03:37:45;4.60;;;0.60;;
72286;SDS011;60221;45.696;16.076;2023-04-05T03:40:12;4.20;;;0.60;;
72286;SDS011;60221;45.696;16.076;2023-04-05T03:42:39;5.10;;;0.80;;
72286;SDS011;60221;45.696;16.076;2023-04-05T03:45:06;5.10;;;1.10;;
72286;SDS011;60221;45.696;16.076;2023-04-05T03:47:33;7.10;;;1.00;;
72286;SDS011;60221;45.696;16.076;2023-04-05T03:50:02;5.50;;;1.20;;
72286;SDS011;60221;45.696;16.076;2023-04-05T03:52:30;5.30;;;0.80;;
72286;SDS011;60221;45.696;16.076;2023-04-05T03:54:57;4.60;;;0.80;;
72286;SDS011;60221;45.696;16.076;2023-04-05T03:57:25;5.80;;;1.30;;
72286;SDS011;60221;45.696;16.076;2023-04-05T03:59:55;4.00;;;0.80;;
72286;SDS011;60221;45.696;16.076;2023-04-05T04:02:22;7.00;;;0.80;;
72286;SDS011;60221;45.696;16.076;2023-04-05T04:04:49;5.10;;;1.00;;
72286;SDS011;60221;45.696;16.076;2023-04-05T04:07:17;3.80;;;0.90;;
72286;SDS011;60221;45.696;16.076;2023-04-05T04:09:43;6.90;;;1.30;;
72286;SDS011;60221;45.696;16.076;2023-04-05T04:12:11;8.20;;;1.60;;
72286;SDS011;60221;45.696;16.076;2023-04-05T04:14:46;4.10;;;0.70;;
72286;SDS011;60221;45.696;16.076;2023-04-05T04:17:33;4.90;;;0.80;;
72286;SDS011;60221;45.696;16.076;2023-04-05T04:20:12;6.80;;;1.90;;
72286;SDS011;60221;45.696;16.076;2023-04-05T04:22:50;7.90;;;1.20;;
72286;SDS011;60221;45.696;16.076;2023-04-05T04:25:37;7.40;;;1.40;;
72286;SDS011;60221;45.696;16.076;2023-04-05T04:28:23;7.20;;;2.20;;
72286;SDS011;60221;45.696;16.076;2023-04-05T04:31:22;10.30;;;2.40;;
72286;SDS011;60221;45.696;16.076;2023-04-05T04:34:12;5.80;;;1.10;;
72286;SDS011;60221;45.696;16.076;2023-04-05T04:36:58;8.40;;;1.90;;
72286;SDS011;60221;45.696;16.076;2023-04-05T04:39:47;6.40;;;1.60;;
72286;SDS011;60221;45.696;16.076;2023-04-05T04:42:26;9.10;;;2.20;;
72286;SDS011;60221;45.696;16.076;2023-04-05T04:45:05;5.80;;;1.00;;
72286;SDS011;60221;45.696;16.076;2023-04-05T04:47:44;5.30;;;1.40;;
72286;SDS011;60221;45.696;16.076;2023-04-05T04:50:23;6.70;;;1.40;;
72286;SDS011;60221;45.696;16.076;2023-04-05T04:52:49;6.70;;;1.70;;
72286;SDS011;60221;45.696;16.076;2023-04-05T04:55:16;6.40;;;1.50;;
72286;SDS011;60221;45.696;16.076;2023-04-05T04:57:45;7.60;;;1.80;;
72286;SDS011;60221;45.696;16.076;2023-04-05T05:00:12;8.00;;;2.50;;
72286;SDS011;60221;45.696;16.076;2023-04-05T05:02:41;6.90;;;1.90;;
72286;SDS011;60221;45.696;16.076;2023-04-05T05:05:12;9.50;;;2.80;;
72286;SDS011;60221;45.696;16.076;2023-04-05T05:07:39;8.30;;;1.50;;
72286;SDS011;60221;45.696;16.076;2023-04-05T05:10:09;7.50;;;1.30;;
72286;SDS011;60221;45.696;16.076;2023-04-05T05:12:37;7.00;;;2.00;;
72286;SDS011;60221;45.696;16.076;2023-04-05T05:15:03;7.60;;;1.50;;
72286;SDS011;60221;45.696;16.076;2023-04-05T05:17:30;7.30;;;2.20;;
72286;SDS011;60221;45.696;16.076;2023-04-05T05:19:57;4.90;;;1.60;;
72286;SDS011;60221;45.696;16.076;2023-04-05T05:22:26;8.50;;;2.10;;
72286;SDS011;60221;45.696;16.076;2023-04-05T05:24:52;6.20;;;1.80;;
72286;SDS011;60221;45.696;16.076;2023-04-05T05:27:19;6.20;;;1.90;;
72286;SDS011;60221;45.696;16.076;2023-04-05T05:29:47;6.90;;;2.30;;
72286;SDS011;60221;45.696;16.076;2023-04-05T05:32:14;7.50;;;2.00;;
72286;SDS011;60221;45.696;16.076;2023-04-05T05:34:42;9.00;;;2.40;;
72286;SDS011;60221;45.696;16.076;2023-04-05T05:37:10;10.60;;;3.20;;
72286;SDS011;60221;45.696;16.076;2023-04-05T05:39:38;6.50;;;1.60;;
72286;SDS011;60221;45.696;16.076;2023-04-05T05:42:05;7.60;;;2.10;;
72286;SDS011;60221;45.696;16.076;2023-04-05T05:44:32;6.70;;;2.10;;
72286;SDS011;60221;45.696;16.076;2023-04-05T05:46:58;7.20;;;2.70;;
72286;SDS011;60221;45.696;16.076;2023-04-05T05:49:25;15.00;;;2.30;;
72286;SDS011;60221;45.696;16.076;2023-04-05T05:51:52;11.40;;;4.50;;
72286;SDS011;60221;45.696;16.076;2023-04-05T05:54:19;9.70;;;2.60;;
72286;SDS011;60221;45.696;16.076;2023-04-05T05:56:46;10.50;;;3.40;;
72286;SDS011;60221;45.696;16.076;2023-04-05T05:59:12;8.60;;;1.90;;
72286;SDS011;60221;45.696;16.076;2023-04-05T06:01:39;12.00;;;3.60;;
72286;SDS011;60221;45.696;16.076;2023-04-05T06:04:12;8.30;;;3.00;;
72286;SDS011;60221;45.696;16.076;2023-04-05T06:06:39;8.70;;;3.00;;
72286;SDS011;60221;45.696;16.076;2023-04-05T06:09:09;8.90;;;1.60;;
72286;SDS011;60221;45.696;16.076;2023-04-05T06:11:35;6.00;;;1.60;;
72286;SDS011;60221;45.696;16.076;2023-04-05T06:14:15;8.10;;;2.50;;
72286;SDS011;60221;45.696;16.076;2023-04-05T06:16:41;6.50;;;2.00;;
72286;SDS011;60221;45.696;16.076;2023-04-05T06:19:08;6.70;;;1.70;;
72286;SDS011;60221;45.696;16.076;2023-04-05T06:21:35;9.40;;;2.30;;
72286;SDS011;60221;45.696;16.076;2023-04-05T06:24:02;10.30;;;3.10;;
72286;SDS011;60221;45.696;16.076;2023-04-05T06:26:29;13.20;;;3.80;;
72286;SDS011;60221;45.696;16.076;2023-04-05T06:28:56;9.20;;;2.60;;
72286;SDS011;60221;45.696;16.076;2023-04-05T06:31:26;21.00;;;7.30;;
72286;SDS011;60221;45.696;16.076;2023-04-05T06:33:56;11.70;;;3.30;;
72286;SDS011;60221;45.696;16.076;2023-04-05T06:36:23;16.90;;;7.40;;
72286;SDS011;60221;45.696;16.076;2023-04-05T06:38:52;15.30;;;5.40;;
72286;SDS011;60221;45.696;16.076;2023-04-05T06:41:19;9.30;;;2.70;;
72286;SDS011;60221;45.696;16.076;2023-04-05T06:43:46;6.20;;;1.10;;
72286;SDS011;60221;45.696;16.076;2023-04-05T06:46:13;9.10;;;2.70;;
72286;SDS011;60221;45.696;16.076;2023-04-05T06:48:40;9.10;;;1.70;;
72286;SDS011;60221;45.696;16.076;2023-04-05T06:51:09;14.30;;;4.80;;
72286;SDS011;60221;45.696;16.076;2023-04-05T06:53:36;9.10;;;3.20;;
72286;SDS011;60221;45.696;16.076;2023-04-05T06:56:03;8.60;;;2.10;;
72286;SDS011;60221;45.696;16.076;2023-04-05T06:58:30;7.40;;;2.00;;
72286;SDS011;60221;45.696;16.076;2023-04-05T07:00:58;10.50;;;2.50;;
72286;SDS011;60221;45.696;16.076;2023-04-05T07:03:25;5.90;;;1.40;;
72286;SDS011;60221;45.696;16.076;2023-04-05T07:05:56;6.00;;;1.80;;
72286;SDS011;60221;45.696;16.076;2023-04-05T07:08:27;6.70;;;2.00;;
72286;SDS011;60221;45.696;16.076;2023-04-05T07:10:54;7.60;;;2.20;;
72286;SDS011;60221;45.696;16.076;2023-04-05T07:13:22;7.70;;;1.90;;
72286;SDS011;60221;45.696;16.076;2023-04-05T07:15:50;10.10;;;2.60;;
72286;SDS011;60221;45.696;16.076;2023-04-05T07:18:18;10.40;;;3.40;;
72286;SDS011;60221;45.696;16.076;2023-04-05T07:20:45;7.20;;;1.80;;
72286;SDS011;60221;45.696;16.076;2023-04-05T07:23:12;7.70;;;2.00;;
72286;SDS011;60221;45.696;16.076;2023-04-05T07:25:39;9.10;;;2.20;;
72286;SDS011;60221;45.696;16.076;2023-04-05T07:28:06;20.20;;;7.60;;
72286;SDS011;60221;45.696;16.076;2023-04-05T07:30:33;14.30;;;4.30;;
72286;SDS011;60221;45.696;16.076;2023-04-05T07:33:01;16.00;;;5.90;;
72286;SDS011;60221;45.696;16.076;2023-04-05T07:35:28;22.40;;;7.10;;
72286;SDS011;60221;45.696;16.076;2023-04-05T07:37:55;10.90;;;4.20;;
72286;SDS011;60221;45.696;16.076;2023-04-05T07:40:22;6.60;;;1.50;;
72286;SDS011;60221;45.696;16.076;2023-04-05T07:42:49;5.90;;;1.40;;
72286;SDS011;60221;45.696;16.076;2023-04-05T07:45:16;8.00;;;1.20;;
72286;SDS011;60221;45.696;16.076;2023-04-05T07:47:42;7.00;;;1.70;;
72286;SDS011;60221;45.696;16.076;2023-04-05T07:50:09;7.00;;;1.30;;
72286;SDS011;60221;45.696;16.076;2023-04-05T07:52:40;6.30;;;1.30;;
72286;SDS011;60221;45.696;16.076;2023-04-05T07:55:08;5.20;;;1.10;;
72286;SDS011;60221;45.696;16.076;2023-04-05T07:57:35;6.50;;;1.40;;
72286;SDS011;60221;45.696;16.076;2023-04-05T08:00:02;7.70;;;1.40;;
72286;SDS011;60221;45.696;16.076;2023-04-05T08:02:38;6.40;;;1.30;;
72286;SDS011;60221;45.696;16.076;2023-04-05T08:05:05;9.50;;;2.20;;
72286;SDS011;60221;45.696;16.076;2023-04-05T08:07:32;5.50;;;1.40;;
72286;SDS011;60221;45.696;16.076;2023-04-05T08:09:59;6.80;;;1.60;;
72286;SDS011;60221;45.696;16.076;2023-04-05T08:12:26;6.90;;;2.00;;
72286;SDS011;60221;45.696;16.076;2023-04-05T08:14:53;6.70;;;1.30;;
72286;SDS011;60221;45.696;16.076;2023-04-05T08:17:19;5.20;;;1.30;;
72286;SDS011;60221;45.696;16.076;2023-04-05T08:19:46;7.10;;;2.00;;
72286;SDS011;60221;45.696;16.076;2023-04-05T08:22:14;6.80;;;1.50;;
72286;SDS011;60221;45.696;16.076;2023-04-05T08:24:43;10.70;;;3.60;;
72286;SDS011;60221;45.696;16.076;2023-04-05T08:27:10;6.60;;;1.70;;
72286;SDS011;60221;45.696;16.076;2023-04-05T08:29:37;9.50;;;2.40;;
72286;SDS011;60221;45.696;16.076;2023-04-05T08:32:04;10.50;;;3.60;;
72286;SDS011;60221;45.696;16.076;2023-04-05T08:34:31;7.20;;;2.60;;
72286;SDS011;60221;45.696;16.076;2023-04-05T08:36:58;5.90;;;1.90;;
72286;SDS011;60221;45.696;16.076;2023-04-05T08:39:25;6.90;;;1.80;;
72286;SDS011;60221;45.696;16.076;2023-04-05T08:44:25;5.80;;;1.80;;
72286;SDS011;60221;45.696;16.076;2023-04-05T08:46:54;6.20;;;1.10;;
72286;SDS011;60221;45.696;16.076;2023-04-05T08:49:21;6.30;;;1.50;;
72286;SDS011;60221;45.696;16.076;2023-04-05T08:51:49;7.10;;;1.20;;
72286;SDS011;60221;45.696;16.076;2023-04-05T08:54:15;6.90;;;2.00;;
72286;SDS011;60221;45.696;16.076;2023-04-05T08:56:42;5.90;;;1.60;;
72286;SDS011;60221;45.696;16.076;2023-04-05T08:59:12;5.00;;;0.90;;
72286;SDS011;60221;45.696;16.076;2023-04-05T09:01:42;6.20;;;1.00;;
72286;SDS011;60221;45.696;16.076;2023-04-05T09:04:16;6.50;;;1.40;;
72286;SDS011;60221;45.696;16.076;2023-04-05T09:06:43;6.00;;;1.80;;
72286;SDS011;60221;45.696;16.076;2023-04-05T09:09:10;6.70;;;1.30;;
72286;SDS011;60221;45.696;16.076;2023-04-05T09:11:37;7.20;;;2.00;;
72286;SDS011;60221;45.696;16.076;2023-04-05T09:14:05;8.00;;;2.00;;
72286;SDS011;60221;45.696;16.076;2023-04-05T09:16:33;7.00;;;1.80;;
72286;SDS011;60221;45.696;16.076;2023-04-05T09:19:02;7.00;;;1.50;;
72286;SDS011;60221;45.696;16.076;2023-04-05T09:21:30;5.90;;;1.30;;
72286;SDS011;60221;45.696;16.076;2023-04-05T09:24:28;5.50;;;1.40;;
72286;SDS011;60221;45.696;16.076;2023-04-05T09:27:05;7.40;;;1.20;;
72286;SDS011;60221;45.696;16.076;2023-04-05T09:29:32;6.50;;;1.50;;
72286;SDS011;60221;45.696;16.076;2023-04-05T09:32:00;6.50;;;1.60;;
72286;SDS011;60221;45.696;16.076;2023-04-05T09:34:29;5.60;;;1.30;;
72286;SDS011;60221;45.696;16.076;2023-04-05T09:36:58;6.00;;;1.50;;
72286;SDS011;60221;45.696;16.076;2023-04-05T09:39:28;6.00;;;1.40;;
72286;SDS011;60221;45.696;16.076;2023-04-05T09:42:08;5.90;;;1.30;;
72286;SDS011;60221;45.696;16.076;2023-04-05T09:44:50;7.60;;;2.00;;
72286;SDS011;60221;45.696;16.076;2023-04-05T09:47:22;7.80;;;1.60;;
72286;SDS011;60221;45.696;16.076;2023-04-05T09:49:53;6.60;;;1.70;;
72286;SDS011;60221;45.696;16.076;2023-04-05T09:52:22;5.60;;;0.80;;
72286;SDS011;60221;45.696;16.076;2023-04-05T09:54:50;4.80;;;1.00;;
72286;SDS011;60221;45.696;16.076;2023-04-05T09:57:17;4.80;;;0.80;;
72286;SDS011;60221;45.696;16.076;2023-04-05T09:59:45;7.50;;;1.70;;
72286;SDS011;60221;45.696;16.076;2023-04-05T10:02:12;9.10;;;1.90;;
72286;SDS011;60221;45.696;16.076;2023-04-05T10:04:40;5.50;;;1.00;;
72286;SDS011;60221;45.696;16.076;2023-04-05T10:07:07;5.70;;;1.30;;
72286;SDS011;60221;45.696;16.076;2023-04-05T10:09:34;6.60;;;1.30;;
72286;SDS011;60221;45.696;16.076;2023-04-05T10:12:01;5.20;;;0.90;;
72286;SDS011;60221;45.696;16.076;2023-04-05T10:14:29;3.70;;;0.80;;
72286;SDS011;60221;45.696;16.076;2023-04-05T10:17:03;4.30;;;0.60;;
72286;SDS011;60221;45.696;16.076;2023-04-05T10:19:36;5.40;;;1.10;;
72286;SDS011;60221;45.696;16.076;2023-04-05T10:22:07;4.70;;;1.20;;
72286;SDS011;60221;45.696;16.076;2023-04-05T10:24:39;4.80;;;1.00;;
72286;SDS011;60221;45.696;16.076;2023-04-05T10:27:21;4.90;;;1.40;;
72286;SDS011;60221;45.696;16.076;2023-04-05T10:30:05;4.40;;;1.00;;
72286;SDS011;60221;45.696;16.076;2023-04-05T10:32:58;6.40;;;0.90;;
72286;SDS011;60221;45.696;16.076;2023-04-05T10:35:33;4.50;;;0.90;;
72286;SDS011;60221;45.696;16.076;2023-04-05T10:40:28;7.70;;;1.50;;
72286;SDS011;60221;45.696;16.076;2023-04-05T10:42:57;4.90;;;0.90;;
72286;SDS011;60221;45.696;16.076;2023-04-05T10:45:26;5.20;;;1.20;;
72286;SDS011;60221;45.696;16.076;2023-04-05T10:48:08;6.10;;;1.10;;
72286;SDS011;60221;45.696;16.076;2023-04-05T10:50:41;6.30;;;0.90;;
72286;SDS011;60221;45.696;16.076;2023-04-05T10:53:09;3.90;;;0.70;;
72286;SDS011;60221;45.696;16.076;2023-04-05T10:55:36;4.40;;;0.90;;
72286;SDS011;60221;45.696;16.076;2023-04-05T10:58:03;4.40;;;1.00;;
72286;SDS011;60221;45.696;16.076;2023-04-05T11:00:30;4.60;;;1.10;;
72286;SDS011;60221;45.696;16.076;2023-04-05T11:02:58;4.80;;;1.50;;
72286;SDS011;60221;45.696;16.076;2023-04-05T11:05:32;5.40;;;0.70;;
72286;SDS011;60221;45.696;16.076;2023-04-05T11:08:06;7.80;;;1.60;;
72286;SDS011;60221;45.696;16.076;2023-04-05T11:10:34;4.00;;;0.70;;
72286;SDS011;60221;45.696;16.076;2023-04-05T11:13:02;6.20;;;2.10;;
72286;SDS011;60221;45.696;16.076;2023-04-05T11:15:29;5.60;;;1.10;;
72286;SDS011;60221;45.696;16.076;2023-04-05T11:20:46;4.80;;;1.00;;
72286;SDS011;60221;45.696;16.076;2023-04-05T11:23:14;5.90;;;1.00;;
72286;SDS011;60221;45.696;16.076;2023-04-05T11:26:24;5.30;;;0.60;;
72286;SDS011;60221;45.696;16.076;2023-04-05T11:28:35;6.20;;;0.80;;
72286;SDS011;60221;45.696;16.076;2023-04-05T11:31:17;4.00;;;0.50;;
72286;SDS011;60221;45.696;16.076;2023-04-05T11:36:31;4.30;;;0.70;;
72286;SDS011;60221;45.696;16.076;2023-04-05T11:41:45;4.40;;;0.60;;
72286;SDS011;60221;45.696;16.076;2023-04-05T11:44:15;5.20;;;1.10;;
72286;SDS011;60221;45.696;16.076;2023-04-05T11:46:42;5.70;;;1.30;;
72286;SDS011;60221;45.696;16.076;2023-04-05T11:49:08;7.50;;;0.80;;
72286;SDS011;60221;45.696;16.076;2023-04-05T11:51:35;5.50;;;1.10;;
72286;SDS011;60221;45.696;16.076;2023-04-05T11:54:03;5.70;;;1.20;;
72286;SDS011;60221;45.696;16.076;2023-04-05T11:56:29;4.30;;;0.90;;
72286;SDS011;60221;45.696;16.076;2023-04-05T11:58:57;4.50;;;0.80;;
72286;SDS011;60221;45.696;16.076;2023-04-05T12:01:24;5.30;;;1.00;;
72286;SDS011;60221;45.696;16.076;2023-04-05T12:03:54;4.80;;;0.80;;
72286;SDS011;60221;45.696;16.076;2023-04-05T12:06:22;6.80;;;1.40;;
72286;SDS011;60221;45.696;16.076;2023-04-05T12:08:49;5.20;;;1.00;;
72286;SDS011;60221;45.696;16.076;2023-04-05T12:11:22;5.10;;;0.80;;
72286;SDS011;60221;45.696;16.076;2023-04-05T12:13:52;4.80;;;0.70;;
72286;SDS011;60221;45.696;16.076;2023-04-05T12:16:19;4.60;;;0.50;;
72286;SDS011;60221;45.696;16.076;2023-04-05T12:18:51;4.60;;;0.50;;
72286;SDS011;60221;45.696;16.076;2023-04-05T12:21:18;4.70;;;0.60;;
72286;SDS011;60221;45.696;16.076;2023-04-05T12:23:45;7.40;;;0.70;;
72286;SDS011;60221;45.696;16.076;2023-04-05T12:26:13;4.40;;;0.80;;
72286;SDS011;60221;45.696;16.076;2023-04-05T12:28:52;5.30;;;0.70;;
72286;SDS011;60221;45.696;16.076;2023-04-05T12:31:38;4.60;;;0.80;;
72286;SDS011;60221;45.696;16.076;2023-04-05T12:34:05;8.10;;;1.20;;
72286;SDS011;60221;45.696;16.076;2023-04-05T12:36:32;4.90;;;0.40;;
72286;SDS011;60221;45.696;16.076;2023-04-05T12:39:00;7.20;;;0.90;;
72286;SDS011;60221;45.696;16.076;2023-04-05T12:41:30;3.80;;;0.80;;
72286;SDS011;60221;45.696;16.076;2023-04-05T12:43:57;7.00;;;1.40;;
72286;SDS011;60221;45.696;16.076;2023-04-05T12:46:37;4.70;;;0.60;;
72286;SDS011;60221;45.696;16.076;2023-04-05T12:49:05;7.10;;;1.30;;
72286;SDS011;60221;45.696;16.076;2023-04-05T12:51:31;4.20;;;0.70;;
72286;SDS011;60221;45.696;16.076;2023-04-05T12:54:00;5.40;;;1.60;;
72286;SDS011;60221;45.696;16.076;2023-04-05T12:56:28;5.90;;;0.80;;
72286;SDS011;60221;45.696;16.076;2023-04-05T12:58:57;5.90;;;0.90;;
72286;SDS011;60221;45.696;16.076;2023-04-05T13:01:24;6.10;;;1.60;;
72286;SDS011;60221;45.696;16.076;2023-04-05T13:03:51;5.80;;;1.80;;
72286;SDS011;60221;45.696;16.076;2023-04-05T13:06:30;4.00;;;0.30;;
72286;SDS011;60221;45.696;16.076;2023-04-05T13:08:57;4.40;;;0.80;;
72286;SDS011;60221;45.696;16.076;2023-04-05T13:11:24;4.20;;;0.90;;
72286;SDS011;60221;45.696;16.076;2023-04-05T13:13:51;5.80;;;1.50;;
72286;SDS011;60221;45.696;16.076;2023-04-05T13:16:17;4.90;;;0.70;;
72286;SDS011;60221;45.696;16.076;2023-04-05T13:18:44;5.30;;;0.60;;
72286;SDS011;60221;45.696;16.076;2023-04-05T13:21:11;5.30;;;1.00;;
72286;SDS011;60221;45.696;16.076;2023-04-05T13:23:38;4.20;;;1.00;;
72286;SDS011;60221;45.696;16.076;2023-04-05T13:26:06;6.30;;;1.30;;
72286;SDS011;60221;45.696;16.076;2023-04-05T13:28:33;5.10;;;1.10;;
72286;SDS011;60221;45.696;16.076;2023-04-05T13:31:01;5.10;;;1.20;;
72286;SDS011;60221;45.696;16.076;2023-04-05T13:33:28;3.80;;;0.80;;
72286;SDS011;60221;45.696;16.076;2023-04-05T13:35:54;4.90;;;1.00;;
72286;SDS011;60221;45.696;16.076;2023-04-05T13:38:21;4.30;;;0.90;;
72286;SDS011;60221;45.696;16.076;2023-04-05T13:40:48;5.10;;;1.00;;
72286;SDS011;60221;45.696;16.076;2023-04-05T13:43:15;6.10;;;1.10;;
72286;SDS011;60221;45.696;16.076;2023-04-05T13:45:42;5.70;;;1.30;;
72286;SDS011;60221;45.696;16.076;2023-04-05T13:48:09;5.30;;;1.10;;
72286;SDS011;60221;45.696;16.076;2023-04-05T13:50:35;5.60;;;1.10;;
72286;SDS011;60221;45.696;16.076;2023-04-05T13:53:02;5.90;;;1.00;;
72286;SDS011;60221;45.696;16.076;2023-04-05T13:55:29;8.50;;;1.40;;
72286;SDS011;60221;45.696;16.076;2023-04-05T13:57:56;5.00;;;0.90;;
72286;SDS011;60221;45.696;16.076;2023-04-05T14:00:23;5.00;;;1.00;;
72286;SDS011;60221;45.696;16.076;2023-04-05T14:02:50;6.00;;;1.10;;
72286;SDS011;60221;45.696;16.076;2023-04-05T14:05:17;5.80;;;0.90;;
72286;SDS011;60221;45.696;16.076;2023-04-05T14:07:44;5.70;;;1.20;;
72286;SDS011;60221;45.696;16.076;2023-04-05T14:10:11;5.40;;;0.80;;
72286;SDS011;60221;45.696;16.076;2023-04-05T14:12:38;6.10;;;1.20;;
72286;SDS011;60221;45.696;16.076;2023-04-05T14:15:05;5.10;;;0.80;;
72286;SDS011;60221;45.696;16.076;2023-04-05T14:17:32;5.20;;;0.80;;
72286;SDS011;60221;45.696;16.076;2023-04-05T14:19:59;4.10;;;0.90;;
72286;SDS011;60221;45.696;16.076;2023-04-05T14:22:25;5.10;;;0.90;;
72286;SDS011;60221;45.696;16.076;2023-04-05T14:24:52;6.00;;;1.10;;
72286;SDS011;60221;45.696;16.076;2023-04-05T14:27:19;6.10;;;0.80;;
72286;SDS011;60221;45.696;16.076;2023-04-05T14:29:52;4.70;;;0.80;;
72286;SDS011;60221;45.696;16.076;2023-04-05T14:32:25;12.50;;;1.70;;
72286;SDS011;60221;45.696;16.076;2023-04-05T14:34:52;5.90;;;1.40;;
72286;SDS011;60221;45.696;16.076;2023-04-05T14:37:19;5.40;;;1.40;;
72286;SDS011;60221;45.696;16.076;2023-04-05T14:39:45;6.20;;;1.80;;
72286;SDS011;60221;45.696;16.076;2023-04-05T14:42:12;6.80;;;0.90;;
72286;SDS011;60221;45.696;16.076;2023-04-05T14:44:39;4.70;;;1.10;;
72286;SDS011;60221;45.696;16.076;2023-04-05T14:47:06;4.40;;;0.90;;
72286;SDS011;60221;45.696;16.076;2023-04-05T14:49:33;5.40;;;1.00;;
72286;SDS011;60221;45.696;16.076;2023-04-05T14:51:59;4.70;;;0.80;;
72286;SDS011;60221;45.696;16.076;2023-04-05T14:54:28;6.80;;;1.20;;
72286;SDS011;60221;45.696;16.076;2023-04-05T14:56:54;5.80;;;0.90;;
72286;SDS011;60221;45.696;16.076;2023-04-05T14:59:21;6.10;;;0.90;;
72286;SDS011;60221;45.696;16.076;2023-04-05T15:01:48;4.80;;;0.90;;
72286;SDS011;60221;45.696;16.076;2023-04-05T15:04:15;6.20;;;1.60;;
72286;SDS011;60221;45.696;16.076;2023-04-05T15:06:42;6.70;;;1.60;;
72286;SDS011;60221;45.696;16.076;2023-04-05T15:09:09;6.30;;;1.40;;
72286;SDS011;60221;45.696;16.076;2023-04-05T15:11:36;5.00;;;1.00;;